sensor_id;sensor_type;location;lat;lon;timestamp;P1;durP1;ratioP1;P2;durP2;ratioP2
4812;SDS011;2420;51.202;8.698;2022-12-13T00:01:32;59.17;;;18.00;;
4812;SDS011;2420;51.202;8.698;2022-12-13T00:03:58;44.70;;;17.47;;
4812;SDS011;2420;51.202;8.698;2022-12-13T00:06:26;39.53;;;13.67;;
4812;SDS011;2420;51.202;8.698;2022-12-13T00:08:53;36.80;;;13.07;;
4812;SDS011;2420;51.202;8.698;2022-12-13T00:11:19;40.33;;;14.13;;
4812;SDS011;2420;51.202;8.698;2022-12-13T00:13:45;40.57;;;14.67;;
4812;SDS011;2420;51.202;8.698;2022-12-13T00:16:13;49.30;;;18.83;;
4812;SDS011;2420;51.202;8.698;2022-12-13T00:18:49;35.13;;;13.77;;
4812;SDS011;2420;51.202;8.698;2022-12-13T00:21:17;55.83;;;12.97;;
4812;SDS011;2420;51.202;8.698;2022-12-13T00:23:44;62.25;;;13.23;;
4812;SDS011;2420;51.202;8.698;2022-12-13T00:26:11;42.60;;;13.48;;
4812;SDS011;2420;51.202;8.698;2022-12-13T00:28:40;46.20;;;13.53;;
4812;SDS011;2420;51.202;8.698;2022-12-13T00:31:07;43.23;;;15.17;;
4812;SDS011;2420;51.202;8.698;2022-12-13T00:33:33;37.80;;;13.33;;
4812;SDS011;2420;51.202;8.698;2022-12-13T00:36:02;37.03;;;13.60;;
4812;SDS011;2420;51.202;8.698;2022-12-13T00:38:29;29.80;;;12.80;;
4812;SDS011;2420;51.202;8.698;2022-12-13T00:40:54;31.30;;;12.87;;
4812;SDS011;2420;51.202;8.698;2022-12-13T00:43:20;40.23;;;13.23;;
4812;SDS011;2420;51.202;8.698;2022-12-13T00:45:46;39.77;;;12.97;;
4812;SDS011;2420;51.202;8.698;2022-12-13T00:48:11;36.57;;;12.93;;
4812;SDS011;2420;51.202;8.698;2022-12-13T00:50:37;38.57;;;12.03;;
4812;SDS011;2420;51.202;8.698;2022-12-13T00:53:03;34.50;;;11.23;;
4812;SDS011;2420;51.202;8.698;2022-12-13T00:55:29;45.90;;;12.87;;
4812;SDS011;2420;51.202;8.698;2022-12-13T00:57:55;61.03;;;14.13;;
4812;SDS011;2420;51.202;8.698;2022-12-13T01:00:20;34.10;;;12.57;;
4812;SDS011;2420;51.202;8.698;2022-12-13T01:02:46;39.83;;;12.20;;
4812;SDS011;2420;51.202;8.698;2022-12-13T01:05:12;32.03;;;11.87;;
4812;SDS011;2420;51.202;8.698;2022-12-13T01:07:38;29.02;;;11.25;;
4812;SDS011;2420;51.202;8.698;2022-12-13T01:10:08;40.63;;;12.13;;
4812;SDS011;2420;51.202;8.698;2022-12-13T01:12:34;44.67;;;13.23;;
4812;SDS011;2420;51.202;8.698;2022-12-13T01:15:00;51.33;;;12.57;;
4812;SDS011;2420;51.202;8.698;2022-12-13T01:17:25;35.30;;;12.43;;
4812;SDS011;2420;51.202;8.698;2022-12-13T01:19:51;32.28;;;12.45;;
4812;SDS011;2420;51.202;8.698;2022-12-13T01:22:17;40.40;;;12.87;;
4812;SDS011;2420;51.202;8.698;2022-12-13T01:24:42;34.33;;;13.20;;
4812;SDS011;2420;51.202;8.698;2022-12-13T01:27:08;27.00;;;10.83;;
4812;SDS011;2420;51.202;8.698;2022-12-13T01:29:34;37.07;;;12.57;;
4812;SDS011;2420;51.202;8.698;2022-12-13T01:31:59;33.80;;;13.37;;
4812;SDS011;2420;51.202;8.698;2022-12-13T01:34:25;35.47;;;12.23;;
4812;SDS011;2420;51.202;8.698;2022-12-13T01:36:53;41.47;;;11.57;;
4812;SDS011;2420;51.202;8.698;2022-12-13T01:39:20;35.77;;;12.07;;
4812;SDS011;2420;51.202;8.698;2022-12-13T01:41:48;37.57;;;12.87;;
4812;SDS011;2420;51.202;8.698;2022-12-13T01:47:20;29.57;;;10.67;;
4812;SDS011;2420;51.202;8.698;2022-12-13T01:49:49;45.10;;;11.97;;
4812;SDS011;2420;51.202;8.698;2022-12-13T01:52:17;40.47;;;11.00;;
4812;SDS011;2420;51.202;8.698;2022-12-13T01:54:45;35.90;;;11.83;;
4812;SDS011;2420;51.202;8.698;2022-12-13T01:57:13;31.60;;;11.87;;
4812;SDS011;2420;51.202;8.698;2022-12-13T01:59:41;30.30;;;11.67;;
4812;SDS011;2420;51.202;8.698;2022-12-13T02:02:08;31.73;;;11.77;;
4812;SDS011;2420;51.202;8.698;2022-12-13T02:04:38;27.80;;;11.37;;
4812;SDS011;2420;51.202;8.698;2022-12-13T02:07:13;30.33;;;12.23;;
4812;SDS011;2420;51.202;8.698;2022-12-13T02:09:40;27.63;;;11.43;;
4812;SDS011;2420;51.202;8.698;2022-12-13T02:12:08;32.90;;;11.47;;
4812;SDS011;2420;51.202;8.698;2022-12-13T02:14:34;29.73;;;11.23;;
4812;SDS011;2420;51.202;8.698;2022-12-13T02:31:09;24.67;;;9.53;;
4812;SDS011;2420;51.202;8.698;2022-12-13T02:36:28;23.03;;;9.70;;
4812;SDS011;2420;51.202;8.698;2022-12-13T02:41:35;26.60;;;10.53;;
4812;SDS011;2420;51.202;8.698;2022-12-13T02:44:06;28.70;;;10.87;;
4812;SDS011;2420;51.202;8.698;2022-12-13T02:46:40;28.20;;;10.47;;
4812;SDS011;2420;51.202;8.698;2022-12-13T02:49:13;42.60;;;10.40;;
4812;SDS011;2420;51.202;8.698;2022-12-13T02:51:40;42.90;;;9.57;;
4812;SDS011;2420;51.202;8.698;2022-12-13T02:54:07;33.90;;;9.87;;
4812;SDS011;2420;51.202;8.698;2022-12-13T02:56:33;38.43;;;10.47;;
4812;SDS011;2420;51.202;8.698;2022-12-13T02:58:59;26.43;;;9.83;;
4812;SDS011;2420;51.202;8.698;2022-12-13T03:01:34;27.20;;;9.37;;
4812;SDS011;2420;51.202;8.698;2022-12-13T03:07:05;33.37;;;10.00;;
4812;SDS011;2420;51.202;8.698;2022-12-13T03:09:53;26.60;;;9.60;;
4812;SDS011;2420;51.202;8.698;2022-12-13T03:12:24;21.57;;;9.03;;
4812;SDS011;2420;51.202;8.698;2022-12-13T03:15:20;31.37;;;10.03;;
4812;SDS011;2420;51.202;8.698;2022-12-13T03:17:52;32.47;;;9.20;;
4812;SDS011;2420;51.202;8.698;2022-12-13T03:20:22;18.57;;;7.97;;
4812;SDS011;2420;51.202;8.698;2022-12-13T03:22:50;21.23;;;8.73;;
4812;SDS011;2420;51.202;8.698;2022-12-13T03:25:17;20.13;;;8.73;;
4812;SDS011;2420;51.202;8.698;2022-12-13T03:27:43;17.33;;;8.10;;
4812;SDS011;2420;51.202;8.698;2022-12-13T03:30:09;27.13;;;8.67;;
4812;SDS011;2420;51.202;8.698;2022-12-13T03:32:35;30.73;;;9.17;;
4812;SDS011;2420;51.202;8.698;2022-12-13T03:35:00;27.13;;;8.90;;
4812;SDS011;2420;51.202;8.698;2022-12-13T03:37:26;21.50;;;9.43;;
4812;SDS011;2420;51.202;8.698;2022-12-13T03:39:51;27.97;;;9.50;;
4812;SDS011;2420;51.202;8.698;2022-12-13T03:42:17;22.53;;;8.47;;
4812;SDS011;2420;51.202;8.698;2022-12-13T03:44:43;22.40;;;8.63;;
4812;SDS011;2420;51.202;8.698;2022-12-13T03:47:08;22.97;;;9.03;;
4812;SDS011;2420;51.202;8.698;2022-12-13T03:49:34;20.80;;;8.87;;
4812;SDS011;2420;51.202;8.698;2022-12-13T03:51:59;19.30;;;8.87;;
4812;SDS011;2420;51.202;8.698;2022-12-13T03:54:25;20.07;;;8.00;;
4812;SDS011;2420;51.202;8.698;2022-12-13T03:56:50;20.30;;;8.47;;
4812;SDS011;2420;51.202;8.698;2022-12-13T03:59:16;19.63;;;7.43;;
4812;SDS011;2420;51.202;8.698;2022-12-13T04:01:41;20.30;;;8.30;;
4812;SDS011;2420;51.202;8.698;2022-12-13T04:04:07;21.97;;;7.80;;
4812;SDS011;2420;51.202;8.698;2022-12-13T04:06:32;16.37;;;7.57;;
4812;SDS011;2420;51.202;8.698;2022-12-13T04:08:58;20.20;;;8.17;;
4812;SDS011;2420;51.202;8.698;2022-12-13T04:11:24;20.03;;;7.87;;
4812;SDS011;2420;51.202;8.698;2022-12-13T04:14:08;21.83;;;8.60;;
4812;SDS011;2420;51.202;8.698;2022-12-13T04:16:35;18.37;;;6.73;;
4812;SDS011;2420;51.202;8.698;2022-12-13T04:19:01;15.73;;;6.17;;
4812;SDS011;2420;51.202;8.698;2022-12-13T04:21:27;16.30;;;7.23;;
4812;SDS011;2420;51.202;8.698;2022-12-13T04:23:52;16.53;;;6.60;;
4812;SDS011;2420;51.202;8.698;2022-12-13T04:26:18;15.10;;;6.60;;
4812;SDS011;2420;51.202;8.698;2022-12-13T04:28:43;16.53;;;7.23;;
4812;SDS011;2420;51.202;8.698;2022-12-13T04:31:09;16.77;;;6.87;;
4812;SDS011;2420;51.202;8.698;2022-12-13T04:33:35;15.67;;;6.93;;
4812;SDS011;2420;51.202;8.698;2022-12-13T04:36:00;16.60;;;6.70;;
4812;SDS011;2420;51.202;8.698;2022-12-13T04:38:26;18.03;;;6.93;;
4812;SDS011;2420;51.202;8.698;2022-12-13T04:40:51;14.90;;;6.27;;
4812;SDS011;2420;51.202;8.698;2022-12-13T04:43:17;13.40;;;6.87;;
4812;SDS011;2420;51.202;8.698;2022-12-13T04:45:42;19.07;;;7.37;;
4812;SDS011;2420;51.202;8.698;2022-12-13T04:48:08;18.53;;;7.43;;
4812;SDS011;2420;51.202;8.698;2022-12-13T04:50:34;22.33;;;8.23;;
4812;SDS011;2420;51.202;8.698;2022-12-13T04:53:00;28.87;;;8.57;;
4812;SDS011;2420;51.202;8.698;2022-12-13T04:55:25;24.37;;;8.60;;
4812;SDS011;2420;51.202;8.698;2022-12-13T04:57:51;20.20;;;8.27;;
4812;SDS011;2420;51.202;8.698;2022-12-13T05:00:17;24.57;;;8.47;;
4812;SDS011;2420;51.202;8.698;2022-12-13T05:02:45;32.90;;;9.07;;
4812;SDS011;2420;51.202;8.698;2022-12-13T05:05:10;26.67;;;9.20;;
4812;SDS011;2420;51.202;8.698;2022-12-13T05:07:36;29.97;;;8.77;;
4812;SDS011;2420;51.202;8.698;2022-12-13T05:10:03;26.30;;;9.33;;
4812;SDS011;2420;51.202;8.698;2022-12-13T05:12:28;24.30;;;8.73;;
4812;SDS011;2420;51.202;8.698;2022-12-13T05:14:54;21.97;;;8.30;;
4812;SDS011;2420;51.202;8.698;2022-12-13T05:17:19;23.40;;;9.20;;
4812;SDS011;2420;51.202;8.698;2022-12-13T05:19:45;21.53;;;8.37;;
4812;SDS011;2420;51.202;8.698;2022-12-13T05:22:11;26.67;;;9.87;;
4812;SDS011;2420;51.202;8.698;2022-12-13T05:24:40;29.87;;;9.93;;
4812;SDS011;2420;51.202;8.698;2022-12-13T05:27:06;28.00;;;9.47;;
4812;SDS011;2420;51.202;8.698;2022-12-13T05:29:32;18.97;;;8.20;;
4812;SDS011;2420;51.202;8.698;2022-12-13T05:31:58;27.63;;;8.73;;
4812;SDS011;2420;51.202;8.698;2022-12-13T05:34:23;23.73;;;8.97;;
4812;SDS011;2420;51.202;8.698;2022-12-13T05:36:49;22.20;;;8.53;;
4812;SDS011;2420;51.202;8.698;2022-12-13T05:39:14;31.83;;;10.07;;
4812;SDS011;2420;51.202;8.698;2022-12-13T05:41:40;31.50;;;8.97;;
4812;SDS011;2420;51.202;8.698;2022-12-13T05:44:06;32.20;;;9.43;;
4812;SDS011;2420;51.202;8.698;2022-12-13T05:46:34;26.93;;;8.73;;
4812;SDS011;2420;51.202;8.698;2022-12-13T05:49:00;23.90;;;9.60;;
4812;SDS011;2420;51.202;8.698;2022-12-13T05:51:26;28.77;;;9.47;;
4812;SDS011;2420;51.202;8.698;2022-12-13T05:53:51;26.30;;;9.07;;
4812;SDS011;2420;51.202;8.698;2022-12-13T05:56:17;26.80;;;8.67;;
4812;SDS011;2420;51.202;8.698;2022-12-13T05:58:43;46.63;;;9.43;;
4812;SDS011;2420;51.202;8.698;2022-12-13T06:01:12;41.23;;;9.37;;
4812;SDS011;2420;51.202;8.698;2022-12-13T06:03:39;27.10;;;8.30;;
4812;SDS011;2420;51.202;8.698;2022-12-13T06:06:05;35.17;;;7.83;;
4812;SDS011;2420;51.202;8.698;2022-12-13T06:08:32;34.30;;;8.90;;
4812;SDS011;2420;51.202;8.698;2022-12-13T06:10:59;30.67;;;8.43;;
4812;SDS011;2420;51.202;8.698;2022-12-13T06:13:25;38.73;;;8.43;;
4812;SDS011;2420;51.202;8.698;2022-12-13T06:15:52;19.23;;;7.17;;
4812;SDS011;2420;51.202;8.698;2022-12-13T06:18:18;26.97;;;7.33;;
4812;SDS011;2420;51.202;8.698;2022-12-13T06:20:43;27.17;;;8.47;;
4812;SDS011;2420;51.202;8.698;2022-12-13T06:23:10;18.90;;;7.40;;
4812;SDS011;2420;51.202;8.698;2022-12-13T06:25:36;18.30;;;6.83;;
4812;SDS011;2420;51.202;8.698;2022-12-13T06:28:01;19.60;;;7.20;;
4812;SDS011;2420;51.202;8.698;2022-12-13T06:30:28;35.90;;;8.43;;
4812;SDS011;2420;51.202;8.698;2022-12-13T06:32:53;17.37;;;6.87;;
4812;SDS011;2420;51.202;8.698;2022-12-13T06:35:19;21.60;;;6.40;;
4812;SDS011;2420;51.202;8.698;2022-12-13T06:37:44;37.10;;;7.73;;
4812;SDS011;2420;51.202;8.698;2022-12-13T06:40:10;15.90;;;6.60;;
4812;SDS011;2420;51.202;8.698;2022-12-13T06:42:36;27.47;;;8.03;;
4812;SDS011;2420;51.202;8.698;2022-12-13T06:45:01;21.90;;;7.27;;
4812;SDS011;2420;51.202;8.698;2022-12-13T06:47:27;22.73;;;7.80;;
4812;SDS011;2420;51.202;8.698;2022-12-13T06:49:54;16.77;;;7.23;;
4812;SDS011;2420;51.202;8.698;2022-12-13T06:52:19;20.33;;;7.43;;
4812;SDS011;2420;51.202;8.698;2022-12-13T06:54:45;33.50;;;7.80;;
4812;SDS011;2420;51.202;8.698;2022-12-13T06:57:11;20.60;;;7.50;;
4812;SDS011;2420;51.202;8.698;2022-12-13T06:59:37;35.03;;;8.30;;
4812;SDS011;2420;51.202;8.698;2022-12-13T07:02:02;23.50;;;8.73;;
4812;SDS011;2420;51.202;8.698;2022-12-13T07:04:28;18.53;;;7.53;;
4812;SDS011;2420;51.202;8.698;2022-12-13T07:06:53;17.07;;;6.90;;
4812;SDS011;2420;51.202;8.698;2022-12-13T07:09:19;22.77;;;7.80;;
4812;SDS011;2420;51.202;8.698;2022-12-13T07:11:44;29.87;;;8.57;;
4812;SDS011;2420;51.202;8.698;2022-12-13T07:14:10;23.77;;;7.57;;
4812;SDS011;2420;51.202;8.698;2022-12-13T07:16:35;44.33;;;7.63;;
4812;SDS011;2420;51.202;8.698;2022-12-13T07:19:01;18.17;;;7.03;;
4812;SDS011;2420;51.202;8.698;2022-12-13T07:21:28;25.00;;;7.60;;
4812;SDS011;2420;51.202;8.698;2022-12-13T07:23:54;27.77;;;7.27;;
4812;SDS011;2420;51.202;8.698;2022-12-13T07:26:20;32.07;;;7.07;;
4812;SDS011;2420;51.202;8.698;2022-12-13T07:28:46;17.07;;;6.50;;
4812;SDS011;2420;51.202;8.698;2022-12-13T07:31:11;22.47;;;7.47;;
4812;SDS011;2420;51.202;8.698;2022-12-13T07:33:38;21.97;;;8.17;;
4812;SDS011;2420;51.202;8.698;2022-12-13T07:38:36;18.37;;;7.50;;
4812;SDS011;2420;51.202;8.698;2022-12-13T07:41:02;25.70;;;8.70;;
4812;SDS011;2420;51.202;8.698;2022-12-13T07:43:29;19.10;;;8.27;;
4812;SDS011;2420;51.202;8.698;2022-12-13T07:45:59;23.30;;;8.17;;
4812;SDS011;2420;51.202;8.698;2022-12-13T07:48:26;21.03;;;7.27;;
4812;SDS011;2420;51.202;8.698;2022-12-13T07:50:52;14.20;;;6.13;;
4812;SDS011;2420;51.202;8.698;2022-12-13T07:53:18;16.37;;;6.90;;
4812;SDS011;2420;51.202;8.698;2022-12-13T07:55:45;21.03;;;7.33;;
4812;SDS011;2420;51.202;8.698;2022-12-13T07:58:14;14.80;;;6.73;;
4812;SDS011;2420;51.202;8.698;2022-12-13T08:00:40;17.53;;;6.03;;
4812;SDS011;2420;51.202;8.698;2022-12-13T08:03:07;17.77;;;6.40;;
4812;SDS011;2420;51.202;8.698;2022-12-13T08:05:33;17.53;;;6.13;;
4812;SDS011;2420;51.202;8.698;2022-12-13T08:07:59;14.50;;;5.87;;
4812;SDS011;2420;51.202;8.698;2022-12-13T08:10:25;12.50;;;5.23;;
4812;SDS011;2420;51.202;8.698;2022-12-13T08:12:51;15.33;;;6.03;;
4812;SDS011;2420;51.202;8.698;2022-12-13T08:15:17;11.63;;;5.50;;
4812;SDS011;2420;51.202;8.698;2022-12-13T08:17:43;14.17;;;5.77;;
4812;SDS011;2420;51.202;8.698;2022-12-13T08:20:08;11.73;;;5.10;;
4812;SDS011;2420;51.202;8.698;2022-12-13T08:22:34;17.53;;;6.33;;
4812;SDS011;2420;51.202;8.698;2022-12-13T08:25:00;14.17;;;6.13;;
4812;SDS011;2420;51.202;8.698;2022-12-13T08:27:26;16.77;;;7.10;;
4812;SDS011;2420;51.202;8.698;2022-12-13T08:29:52;12.97;;;6.47;;
4812;SDS011;2420;51.202;8.698;2022-12-13T08:32:17;18.23;;;7.40;;
4812;SDS011;2420;51.202;8.698;2022-12-13T08:34:43;15.77;;;6.70;;
4812;SDS011;2420;51.202;8.698;2022-12-13T08:37:09;18.40;;;6.93;;
4812;SDS011;2420;51.202;8.698;2022-12-13T08:39:36;18.13;;;6.57;;
4812;SDS011;2420;51.202;8.698;2022-12-13T08:42:03;17.70;;;8.00;;
4812;SDS011;2420;51.202;8.698;2022-12-13T08:44:30;16.63;;;7.17;;
4812;SDS011;2420;51.202;8.698;2022-12-13T08:46:55;26.33;;;10.53;;
4812;SDS011;2420;51.202;8.698;2022-12-13T08:49:21;20.00;;;8.67;;
4812;SDS011;2420;51.202;8.698;2022-12-13T08:51:46;23.03;;;9.00;;
4812;SDS011;2420;51.202;8.698;2022-12-13T08:54:12;19.07;;;9.17;;
4812;SDS011;2420;51.202;8.698;2022-12-13T08:56:38;19.50;;;7.77;;
4812;SDS011;2420;51.202;8.698;2022-12-13T08:59:03;21.93;;;8.20;;
4812;SDS011;2420;51.202;8.698;2022-12-13T09:01:29;19.87;;;8.00;;
4812;SDS011;2420;51.202;8.698;2022-12-13T09:03:55;19.07;;;7.97;;
4812;SDS011;2420;51.202;8.698;2022-12-13T09:06:21;23.17;;;8.50;;
4812;SDS011;2420;51.202;8.698;2022-12-13T09:08:47;25.70;;;9.03;;
4812;SDS011;2420;51.202;8.698;2022-12-13T09:11:12;22.23;;;9.17;;
4812;SDS011;2420;51.202;8.698;2022-12-13T09:13:39;21.90;;;8.37;;
4812;SDS011;2420;51.202;8.698;2022-12-13T09:16:05;21.67;;;7.27;;
4812;SDS011;2420;51.202;8.698;2022-12-13T09:18:33;20.50;;;8.03;;
4812;SDS011;2420;51.202;8.698;2022-12-13T09:20:59;22.50;;;8.17;;
4812;SDS011;2420;51.202;8.698;2022-12-13T09:23:29;28.97;;;8.77;;
4812;SDS011;2420;51.202;8.698;2022-12-13T09:25:56;29.73;;;9.73;;
4812;SDS011;2420;51.202;8.698;2022-12-13T09:28:24;22.53;;;9.03;;
4812;SDS011;2420;51.202;8.698;2022-12-13T09:30:50;22.10;;;8.67;;
4812;SDS011;2420;51.202;8.698;2022-12-13T09:33:16;24.60;;;9.33;;
4812;SDS011;2420;51.202;8.698;2022-12-13T09:35:42;23.70;;;9.57;;
4812;SDS011;2420;51.202;8.698;2022-12-13T09:38:07;30.33;;;10.93;;
4812;SDS011;2420;51.202;8.698;2022-12-13T09:40:33;24.40;;;10.67;;
4812;SDS011;2420;51.202;8.698;2022-12-13T09:43:02;20.20;;;8.23;;
4812;SDS011;2420;51.202;8.698;2022-12-13T09:45:28;24.00;;;9.50;;
4812;SDS011;2420;51.202;8.698;2022-12-13T09:47:54;35.03;;;13.30;;
4812;SDS011;2420;51.202;8.698;2022-12-13T09:50:25;36.30;;;14.70;;
4812;SDS011;2420;51.202;8.698;2022-12-13T09:52:51;24.53;;;9.43;;
4812;SDS011;2420;51.202;8.698;2022-12-13T09:55:19;28.23;;;10.17;;
4812;SDS011;2420;51.202;8.698;2022-12-13T09:57:48;26.50;;;9.37;;
4812;SDS011;2420;51.202;8.698;2022-12-13T10:00:16;25.77;;;9.77;;
4812;SDS011;2420;51.202;8.698;2022-12-13T10:02:47;33.10;;;10.23;;
4812;SDS011;2420;51.202;8.698;2022-12-13T10:07:41;31.07;;;10.50;;
4812;SDS011;2420;51.202;8.698;2022-12-13T10:10:08;21.93;;;9.17;;
4812;SDS011;2420;51.202;8.698;2022-12-13T10:12:35;32.63;;;10.93;;
4812;SDS011;2420;51.202;8.698;2022-12-13T10:15:02;27.80;;;9.70;;
4812;SDS011;2420;51.202;8.698;2022-12-13T10:17:33;29.23;;;10.23;;
4812;SDS011;2420;51.202;8.698;2022-12-13T10:20:02;36.27;;;10.93;;
4812;SDS011;2420;51.202;8.698;2022-12-13T10:22:29;27.13;;;10.80;;
4812;SDS011;2420;51.202;8.698;2022-12-13T10:24:55;29.87;;;10.73;;
4812;SDS011;2420;51.202;8.698;2022-12-13T10:32:48;28.93;;;11.10;;
4812;SDS011;2420;51.202;8.698;2022-12-13T10:38:24;33.17;;;12.13;;
4812;SDS011;2420;51.202;8.698;2022-12-13T10:40:50;26.00;;;10.70;;
4812;SDS011;2420;51.202;8.698;2022-12-13T10:45:57;26.20;;;11.23;;
4812;SDS011;2420;51.202;8.698;2022-12-13T10:51:12;27.57;;;10.47;;
4812;SDS011;2420;51.202;8.698;2022-12-13T10:56:10;25.70;;;10.23;;
4812;SDS011;2420;51.202;8.698;2022-12-13T10:58:40;26.70;;;11.73;;
4812;SDS011;2420;51.202;8.698;2022-12-13T11:01:22;25.37;;;9.23;;
4812;SDS011;2420;51.202;8.698;2022-12-13T11:03:59;24.87;;;9.50;;
4812;SDS011;2420;51.202;8.698;2022-12-13T11:06:45;25.43;;;10.40;;
4812;SDS011;2420;51.202;8.698;2022-12-13T11:09:12;31.63;;;12.13;;
4812;SDS011;2420;51.202;8.698;2022-12-13T11:11:51;33.10;;;12.97;;
4812;SDS011;2420;51.202;8.698;2022-12-13T11:14:19;39.27;;;13.47;;
4812;SDS011;2420;51.202;8.698;2022-12-13T11:16:50;33.17;;;14.53;;
4812;SDS011;2420;51.202;8.698;2022-12-13T11:19:22;38.03;;;14.97;;
4812;SDS011;2420;51.202;8.698;2022-12-13T11:21:49;42.53;;;16.63;;
4812;SDS011;2420;51.202;8.698;2022-12-13T11:24:21;45.83;;;17.17;;
4812;SDS011;2420;51.202;8.698;2022-12-13T11:26:52;36.07;;;15.43;;
4812;SDS011;2420;51.202;8.698;2022-12-13T11:32:37;37.13;;;14.97;;
4812;SDS011;2420;51.202;8.698;2022-12-13T11:35:20;38.07;;;15.60;;
4812;SDS011;2420;51.202;8.698;2022-12-13T11:44:03;32.40;;;12.73;;
4812;SDS011;2420;51.202;8.698;2022-12-13T11:46:39;29.70;;;13.07;;
4812;SDS011;2420;51.202;8.698;2022-12-13T11:49:17;31.30;;;12.63;;
4812;SDS011;2420;51.202;8.698;2022-12-13T11:51:56;32.30;;;12.77;;
4812;SDS011;2420;51.202;8.698;2022-12-13T11:54:31;31.43;;;13.03;;
4812;SDS011;2420;51.202;8.698;2022-12-13T11:57:02;31.03;;;12.43;;
4812;SDS011;2420;51.202;8.698;2022-12-13T11:59:41;27.93;;;12.57;;
4812;SDS011;2420;51.202;8.698;2022-12-13T12:02:16;31.13;;;12.93;;
4812;SDS011;2420;51.202;8.698;2022-12-13T12:04:48;29.73;;;11.80;;
4812;SDS011;2420;51.202;8.698;2022-12-13T12:07:16;34.50;;;12.67;;
4812;SDS011;2420;51.202;8.698;2022-12-13T12:12:38;28.70;;;11.67;;
4812;SDS011;2420;51.202;8.698;2022-12-13T12:15:19;26.43;;;10.73;;
4812;SDS011;2420;51.202;8.698;2022-12-13T12:17:50;30.17;;;12.87;;
4812;SDS011;2420;51.202;8.698;2022-12-13T12:20:20;32.23;;;12.13;;
4812;SDS011;2420;51.202;8.698;2022-12-13T12:23:13;26.07;;;11.17;;
4812;SDS011;2420;51.202;8.698;2022-12-13T12:28:37;29.43;;;11.60;;
4812;SDS011;2420;51.202;8.698;2022-12-13T12:31:31;30.87;;;11.83;;
4812;SDS011;2420;51.202;8.698;2022-12-13T12:36:49;29.87;;;11.83;;
4812;SDS011;2420;51.202;8.698;2022-12-13T12:39:24;28.00;;;11.40;;
4812;SDS011;2420;51.202;8.698;2022-12-13T12:45:18;25.93;;;10.50;;
4812;SDS011;2420;51.202;8.698;2022-12-13T12:51:31;26.63;;;11.53;;
4812;SDS011;2420;51.202;8.698;2022-12-13T12:53:48;28.60;;;11.57;;
4812;SDS011;2420;51.202;8.698;2022-12-13T12:56:34;27.43;;;11.23;;
4812;SDS011;2420;51.202;8.698;2022-12-13T12:59:11;27.37;;;11.87;;
4812;SDS011;2420;51.202;8.698;2022-12-13T13:01:48;23.97;;;10.90;;
4812;SDS011;2420;51.202;8.698;2022-12-13T13:04:37;27.13;;;11.50;;
4812;SDS011;2420;51.202;8.698;2022-12-13T13:07:10;30.10;;;12.20;;
4812;SDS011;2420;51.202;8.698;2022-12-13T13:09:40;28.03;;;12.00;;
4812;SDS011;2420;51.202;8.698;2022-12-13T13:12:06;26.97;;;11.90;;
4812;SDS011;2420;51.202;8.698;2022-12-13T13:14:38;28.83;;;12.83;;
4812;SDS011;2420;51.202;8.698;2022-12-13T13:19:50;30.93;;;12.83;;
4812;SDS011;2420;51.202;8.698;2022-12-13T13:24:56;24.47;;;11.57;;
4812;SDS011;2420;51.202;8.698;2022-12-13T13:27:27;29.00;;;13.30;;
4812;SDS011;2420;51.202;8.698;2022-12-13T13:30:04;27.73;;;12.73;;
4812;SDS011;2420;51.202;8.698;2022-12-13T13:32:37;29.40;;;13.90;;
4812;SDS011;2420;51.202;8.698;2022-12-13T13:37:55;30.63;;;13.60;;
4812;SDS011;2420;51.202;8.698;2022-12-13T13:45:36;30.37;;;13.77;;
4812;SDS011;2420;51.202;8.698;2022-12-13T14:02:20;34.42;;;15.18;;
4812;SDS011;2420;51.202;8.698;2022-12-13T14:08:20;27.63;;;12.75;;
4812;SDS011;2420;51.202;8.698;2022-12-13T14:11:17;29.80;;;13.73;;
4812;SDS011;2420;51.202;8.698;2022-12-13T14:23:17;32.90;;;14.47;;
4812;SDS011;2420;51.202;8.698;2022-12-13T14:26:08;32.93;;;14.90;;
4812;SDS011;2420;51.202;8.698;2022-12-13T14:28:55;36.73;;;16.33;;
4812;SDS011;2420;51.202;8.698;2022-12-13T14:31:42;40.47;;;18.50;;
4812;SDS011;2420;51.202;8.698;2022-12-13T14:37:03;40.10;;;17.90;;
4812;SDS011;2420;51.202;8.698;2022-12-13T14:39:30;36.35;;;16.88;;
4812;SDS011;2420;51.202;8.698;2022-12-13T14:41:59;38.43;;;17.07;;
4812;SDS011;2420;51.202;8.698;2022-12-13T14:44:30;37.70;;;16.87;;
4812;SDS011;2420;51.202;8.698;2022-12-13T14:47:01;37.23;;;17.00;;
4812;SDS011;2420;51.202;8.698;2022-12-13T14:49:30;36.50;;;16.73;;
4812;SDS011;2420;51.202;8.698;2022-12-13T14:52:04;44.17;;;20.58;;
4812;SDS011;2420;51.202;8.698;2022-12-13T14:54:40;55.13;;;25.87;;
4812;SDS011;2420;51.202;8.698;2022-12-13T14:57:15;68.93;;;31.63;;
4812;SDS011;2420;51.202;8.698;2022-12-13T14:59:49;67.90;;;30.17;;
4812;SDS011;2420;51.202;8.698;2022-12-13T15:02:18;56.97;;;24.17;;
4812;SDS011;2420;51.202;8.698;2022-12-13T15:04:45;47.70;;;20.57;;
4812;SDS011;2420;51.202;8.698;2022-12-13T15:07:25;41.40;;;18.47;;
4812;SDS011;2420;51.202;8.698;2022-12-13T15:10:02;32.93;;;16.40;;
4812;SDS011;2420;51.202;8.698;2022-12-13T15:12:43;34.23;;;16.57;;
4812;SDS011;2420;51.202;8.698;2022-12-13T15:15:17;38.17;;;16.60;;
4812;SDS011;2420;51.202;8.698;2022-12-13T15:18:03;37.67;;;18.37;;
4812;SDS011;2420;51.202;8.698;2022-12-13T15:20:38;34.17;;;16.40;;
4812;SDS011;2420;51.202;8.698;2022-12-13T15:23:18;43.37;;;19.60;;
4812;SDS011;2420;51.202;8.698;2022-12-13T15:25:48;28.07;;;13.87;;
4812;SDS011;2420;51.202;8.698;2022-12-13T15:28:42;25.30;;;12.77;;
4812;SDS011;2420;51.202;8.698;2022-12-13T15:31:09;30.00;;;11.57;;
4812;SDS011;2420;51.202;8.698;2022-12-13T15:33:35;27.13;;;12.07;;
4812;SDS011;2420;51.202;8.698;2022-12-13T15:36:06;29.57;;;12.60;;
4812;SDS011;2420;51.202;8.698;2022-12-13T15:38:38;35.63;;;14.83;;
4812;SDS011;2420;51.202;8.698;2022-12-13T15:41:17;29.50;;;12.90;;
4812;SDS011;2420;51.202;8.698;2022-12-13T15:43:45;35.37;;;16.07;;
4812;SDS011;2420;51.202;8.698;2022-12-13T15:46:22;34.73;;;15.03;;
4812;SDS011;2420;51.202;8.698;2022-12-13T15:48:52;35.57;;;17.47;;
4812;SDS011;2420;51.202;8.698;2022-12-13T15:51:20;50.17;;;20.03;;
4812;SDS011;2420;51.202;8.698;2022-12-13T15:54:05;53.13;;;22.50;;
4812;SDS011;2420;51.202;8.698;2022-12-13T15:59:33;34.40;;;15.83;;
4812;SDS011;2420;51.202;8.698;2022-12-13T16:02:00;30.03;;;15.03;;
4812;SDS011;2420;51.202;8.698;2022-12-13T16:04:28;30.37;;;14.83;;
4812;SDS011;2420;51.202;8.698;2022-12-13T16:06:55;29.90;;;14.17;;
4812;SDS011;2420;51.202;8.698;2022-12-13T16:09:22;37.80;;;16.20;;
4812;SDS011;2420;51.202;8.698;2022-12-13T16:11:55;29.07;;;14.87;;
4812;SDS011;2420;51.202;8.698;2022-12-13T16:16:52;28.67;;;13.00;;
4812;SDS011;2420;51.202;8.698;2022-12-13T16:19:19;24.17;;;12.53;;
4812;SDS011;2420;51.202;8.698;2022-12-13T16:21:45;31.03;;;14.73;;
4812;SDS011;2420;51.202;8.698;2022-12-13T16:24:11;28.27;;;12.47;;
4812;SDS011;2420;51.202;8.698;2022-12-13T16:26:36;24.50;;;11.80;;
4812;SDS011;2420;51.202;8.698;2022-12-13T16:29:07;29.30;;;13.27;;
4812;SDS011;2420;51.202;8.698;2022-12-13T16:31:35;26.43;;;13.07;;
4812;SDS011;2420;51.202;8.698;2022-12-13T16:34:01;21.20;;;10.70;;
4812;SDS011;2420;51.202;8.698;2022-12-13T16:36:31;21.70;;;10.80;;
4812;SDS011;2420;51.202;8.698;2022-12-13T16:38:56;22.70;;;11.40;;
4812;SDS011;2420;51.202;8.698;2022-12-13T16:41:22;20.87;;;11.53;;
4812;SDS011;2420;51.202;8.698;2022-12-13T16:43:53;26.30;;;11.97;;
4812;SDS011;2420;51.202;8.698;2022-12-13T16:46:19;29.67;;;14.13;;
4812;SDS011;2420;51.202;8.698;2022-12-13T16:48:45;31.13;;;15.63;;
4812;SDS011;2420;51.202;8.698;2022-12-13T16:51:11;30.80;;;16.00;;
4812;SDS011;2420;51.202;8.698;2022-12-13T16:53:36;33.87;;;16.90;;
4812;SDS011;2420;51.202;8.698;2022-12-13T16:56:02;34.83;;;16.25;;
4812;SDS011;2420;51.202;8.698;2022-12-13T16:58:28;30.90;;;15.67;;
4812;SDS011;2420;51.202;8.698;2022-12-13T17:00:53;30.87;;;15.47;;
4812;SDS011;2420;51.202;8.698;2022-12-13T17:03:23;25.80;;;13.87;;